• Join FlightAware (Why Join?)
  • Login
  • US Flag 
04:00AM EDT


 

Airport Tracker/Info


-or-


 

Live Flight TrackerFlight Track Log ✈ LOF3416 ✈ 16-Sep-2013 ✈ KORD - KSGF

Flight Track Log - Related Links

Times and Time Zones

All times are in EDT time to prevent confusion due to time zone crossing. See the LOF3416 flight status page for this flight to view local times or setup timezone preferences in your user account.

Time Position Orientation Groundspeed Altitude Reporting Facility
EDT Latitude Longitude Course Direction KTS MPH feet Rate Location/Type
09:16PM 41.9667 -87.8500 198° South 183 211 2,700  Level Chicago TRACON
09:17PM 41.9167 -87.8333 166° South 230 265 4,600 1,980 Climbing Chicago TRACON
09:19PM 41.8367 -87.8436 185° South 241 277 7,000 2,160 Climbing Chicago Center
09:20PM 41.7567 -87.9050 210° Southwest 275 316 9,700 2,220 Climbing Chicago Center
09:21PM 41.6881 -87.9594 211° Southwest 287 330 11,700 1,620 Climbing Chicago Center
09:22PM 41.5410 -88.4637 198° South  Level Estimated
09:22PM 41.6139 -88.0169 210° Southwest 305 351 13,100  Level Chicago Center
09:23PM 41.5328 -88.0792 210° Southwest 334 384 14,100 1,140 Climbing Chicago Center
09:24PM 41.4350 -88.1583 211° Southwest 358 412 15,500 1,320 Climbing Chicago Center
09:25PM 41.3447 -88.2092 203° Southwest 366 421 16,900 1,200 Climbing Chicago Center
09:26PM 41.2519 -88.2497 198° South 358 412 18,000 1,080 Climbing Chicago Center
09:27PM 41.1572 -88.2928 199° South 360 414 19,200 1,200 Climbing Chicago Center
09:28PM 41.0603 -88.3356 198° South 365 420 20,500 1,320 Climbing Chicago Center
09:29PM 40.9417 -88.3894 199° South 374 430 22,000 1,320 Climbing Chicago Center
09:30PM 40.8411 -88.4336 198° South 381 438 23,300 1,200 Climbing Chicago Center
09:31PM 40.7403 -88.4844 201° Southwest 387 445 24,600 1,260 Climbing Chicago Center
09:32PM 40.6594 -88.5744 220° Southwest 378 435 26,000 1,320 Climbing Chicago Center
09:33PM 40.5775 -88.6644 220° Southwest 383 441 27,400 960 Climbing Chicago Center
09:34PM 40.4797 -88.7708 220° Southwest 383 441 28,000 240 Climbing Chicago Center
09:35PM 40.4056 -88.8511 220° Southwest 403 464 28,000  Level Chicago Center
09:36PM 40.3131 -88.9508 219° Southwest 423 487 28,000  Level Chicago Center
09:37PM 40.1986 -89.0750 220° Southwest 438 504 28,000  Level Chicago Center
09:38PM 40.1017 -89.1803 220° Southwest 448 516 28,000  Level Chicago Center
09:39PM 40.0419 -89.2450 220° Southwest 448 516 28,000  Level Kansas City Center
09:40PM 39.9422 -89.3528 220° Southwest 457 526 28,000  Level Kansas City Center
09:41PM 39.8433 -89.4572 219° Southwest 457 526 28,000  Level Kansas City Center
09:42PM 39.7242 -89.5839 219° Southwest 459 528 28,000  Level Kansas City Center
09:43PM 39.6269 -89.6850 219° Southwest 455 524 28,000  Level Kansas City Center
09:44PM 39.5314 -89.7881 220° Southwest 450 518 28,000  Level Kansas City Center
09:45PM 39.4336 -89.8897 219° Southwest 450 518 28,000  Level Kansas City Center
09:46PM 39.3358 -89.9919 219° Southwest 453 521 28,000  Level Kansas City Center
09:47PM 39.2383 -90.0936 219° Southwest 452 520 28,000  Level Kansas City Center
09:48PM 39.1403 -90.1947 219° Southwest 453 521 28,000  Level Kansas City Center
09:49PM 39.0439 -90.2958 219° Southwest 451 519 28,000  Level Kansas City Center
09:50PM 38.9311 -90.4125 219° Southwest 448 516 28,000  Level Kansas City Center
09:51PM 38.8397 -90.5217 223° Southwest 446 513 28,000  Level Kansas City Center
09:52PM 38.7719 -90.6517 236° Southwest 441 507 28,000  Level Kansas City Center
09:53PM 38.7078 -90.7853 238° Southwest 448 516 28,000  Level Kansas City Center
09:54PM 38.6417 -90.9142 237° Southwest 442 509 28,000  Level Kansas City Center
09:55PM 38.5747 -91.0456 237° Southwest 442 509 28,000  Level Kansas City Center
09:56PM 38.4939 -91.2017 237° Southwest 442 509 28,000 -300 Level Kansas City Center
09:57PM 38.4272 -91.3314 237° Southwest 441 507 27,500 -1,080 Descending Kansas City Center
09:58PM 38.3556 -91.4689 236° Southwest 440 506 25,900 -1,500 Descending Kansas City Center
09:59PM 38.2861 -91.6017 236° Southwest 447 514 24,400 -1,500 Descending Kansas City Center
10:00PM 38.2183 -91.7311 236° Southwest 442 509 22,900 -1,560 Descending Kansas City Center
10:01PM 38.1508 -91.8586 236° Southwest 435 501 21,300 -1,560 Descending Kansas City Center
10:02PM 38.0850 -91.9850 237° Southwest 430 495 19,800 -1,440 Descending Kansas City Center
10:03PM 38.0258 -92.0956 236° Southwest 422 486 18,400 -1,320 Descending Kansas City Center
10:04PM 37.9642 -92.2128 236° Southwest 406 467 17,100 -1,140 Descending Kansas City Center
10:05PM 37.8894 -92.3503 235° Southwest 399 459 16,100 -600 Descending Kansas City Center
10:06PM 37.8275 -92.4656 236° Southwest 397 457 16,000 -300 Descending Kansas City Center
10:08PM 37.7656 -92.5800 236° Southwest 396 456 15,600 -1,140 Descending Kansas City Center
10:09PM 37.7092 -92.6878 237° Southwest 376 433 13,800 -1,920 Descending Kansas City Center
10:10PM 37.6517 -92.7939 236° Southwest 368 423 11,700 -1,680 Descending Kansas City Center
10:11PM 37.5981 -92.8919 235° Southwest 353 406 10,400 -1,320 Descending Kansas City Center
10:12PM 37.5583 -92.9722 238° Southwest 299 344 9,000 -1,680 Descending Kansas City Center
10:13PM 37.5353 -93.0592 252° West 274 315 7,100 -1,860 Descending Kansas City Center
10:14PM 37.5136 -93.1469 253° West 263 303 5,300 -1,560 Descending Kansas City Center
10:15PM 37.4939 -93.2331 254° West 257 296 4,000 -660 Descending Kansas City Center
10:16PM 37.4703 -93.3342 254° West 251 289 4,000 -60 Level Kansas City Center
10:17PM 37.4511 -93.4183 254° West 250 288 3,900  Descending Kansas City Center
10:18PM 37.4356 -93.4894 255° West 220 253 4,000  Climbing Kansas City Center
10:19PM 37.4083 -93.5497 240° Southwest 213 245 4,000 -540 Level Kansas City Center
10:20PM 37.3642 -93.5078 143° Southeast 200 230 3,000 -540 Descending Kansas City Center
10:21PM 37.3256 -93.4694 142° Southeast 186 214 3,000 -240 Level Kansas City Center
10:22PM 37.2889 -93.4325 141° Southeast 172 198 2,600 -420 Descending Kansas City Center